createdAt,value
2018-11-21T00:02:17.870Z,4.10
2018-11-21T00:05:18.425Z,3.75
2018-11-21T00:08:18.949Z,4.12
2018-11-21T00:11:19.484Z,3.77
2018-11-21T00:14:20.014Z,3.67
2018-11-21T00:17:20.534Z,3.47
2018-11-21T00:20:21.083Z,3.40
2018-11-21T00:23:21.594Z,3.87
2018-11-21T00:26:22.146Z,3.95
2018-11-21T00:29:22.659Z,3.80
2018-11-21T00:32:23.207Z,3.50
2018-11-21T00:35:23.754Z,4.00
2018-11-21T00:38:24.255Z,3.30
2018-11-21T00:41:24.810Z,3.58
2018-11-21T00:44:25.318Z,3.98
2018-11-21T00:47:25.875Z,3.65
2018-11-21T00:50:26.383Z,3.50
2018-11-21T00:53:26.935Z,3.72
2018-11-21T00:56:27.446Z,3.98
2018-11-21T00:59:28.005Z,3.77
2018-11-21T01:02:28.526Z,3.40
2018-11-21T01:05:29.039Z,3.70
2018-11-21T01:08:29.594Z,3.85
2018-11-21T01:11:30.107Z,3.62
2018-11-21T01:14:30.654Z,3.60
2018-11-21T01:17:31.165Z,3.75
2018-11-21T01:20:31.722Z,3.85
2018-11-21T01:23:32.225Z,3.65
2018-11-21T01:26:32.786Z,3.47
2018-11-21T01:29:33.294Z,3.85
2018-11-21T01:32:33.848Z,3.87
2018-11-21T01:35:34.441Z,4.10
2018-11-21T01:38:34.890Z,3.35
2018-11-21T01:41:35.455Z,3.92
2018-11-21T01:44:35.961Z,4.15
2018-11-21T01:47:36.506Z,3.50
2018-11-21T01:50:37.015Z,3.87
2018-11-21T01:53:37.569Z,3.90
2018-11-21T01:56:38.079Z,3.62
2018-11-21T01:59:38.633Z,3.70
2018-11-21T02:02:39.079Z,3.60
2018-11-21T02:05:39.594Z,3.60
2018-11-21T02:08:40.107Z,3.33
2018-11-21T02:11:40.659Z,3.87
2018-11-21T02:14:41.194Z,3.47
2018-11-21T02:17:41.702Z,3.72
2018-11-21T02:20:42.262Z,3.67
2018-11-21T02:23:42.777Z,3.50
2018-11-21T02:26:43.318Z,3.65
2018-11-21T02:29:43.830Z,3.42
2018-11-21T02:32:44.383Z,3.50
2018-11-21T02:35:44.898Z,3.67
2018-11-21T02:38:45.447Z,3.80
2018-11-21T02:41:46.011Z,3.52
2018-11-21T02:44:46.488Z,3.35
2018-11-21T02:47:47.042Z,3.45
2018-11-21T02:50:47.555Z,3.45
2018-11-21T02:53:48.102Z,3.35
2018-11-21T02:57:04.142Z,3.02
2018-11-21T03:00:04.614Z,3.50
2018-11-21T03:03:05.084Z,3.58
2018-11-21T03:06:05.570Z,3.27
2018-11-21T03:09:06.128Z,3.62
2018-11-21T03:12:06.638Z,3.37
2018-11-21T03:15:07.191Z,3.27
2018-11-21T03:18:07.735Z,3.50
2018-11-21T03:21:08.229Z,3.72
2018-11-21T03:24:08.783Z,3.72
2018-11-21T03:27:09.293Z,3.70
2018-11-21T03:30:09.852Z,3.27
2018-11-21T03:33:10.363Z,3.35
2018-11-21T03:36:10.910Z,3.70
2018-11-21T03:39:11.422Z,3.55
2018-11-21T03:42:11.979Z,3.25
2018-11-21T03:45:12.526Z,3.58
2018-11-21T03:48:13.020Z,3.50
2018-11-21T03:51:13.571Z,3.50
2018-11-21T03:54:14.082Z,3.62
2018-11-21T03:57:14.634Z,3.55
2018-11-21T04:00:15.146Z,3.40
2018-11-21T04:03:15.614Z,3.52
2018-11-21T04:06:16.110Z,3.65
2018-11-21T04:09:16.661Z,3.37
2018-11-21T04:12:17.187Z,3.60
2018-11-21T04:15:17.713Z,3.42
2018-11-21T04:18:18.258Z,3.10
2018-11-21T04:21:18.767Z,3.83
2018-11-21T04:24:19.327Z,2.98
2018-11-21T04:27:19.830Z,3.40
2018-11-21T04:30:20.388Z,3.60
2018-11-21T04:33:20.898Z,3.40
2018-11-21T04:36:21.445Z,3.25
2018-11-21T04:39:21.987Z,3.55
2018-11-21T04:42:22.491Z,3.22
2018-11-21T04:45:23.049Z,3.30
2018-11-21T04:48:23.546Z,3.25
2018-11-21T04:51:24.114Z,3.58
2018-11-21T04:54:24.627Z,3.70
2018-11-21T04:57:25.171Z,3.33
2018-11-21T05:00:25.707Z,3.60
2018-11-21T05:03:26.157Z,3.40
2018-11-21T05:06:26.666Z,3.12
2018-11-21T05:09:27.278Z,3.42
2018-11-21T05:12:27.831Z,3.40
2018-11-21T05:15:28.337Z,3.30
2018-11-21T05:18:28.900Z,3.15
2018-11-21T05:21:29.410Z,3.70
2018-11-21T05:24:29.958Z,3.50
2018-11-21T05:27:30.486Z,3.10
2018-11-21T05:30:30.997Z,3.25
2018-11-21T05:33:31.555Z,2.80
2018-11-21T05:36:32.062Z,3.33
2018-11-21T05:39:32.619Z,3.10
2018-11-21T05:42:33.127Z,3.12
2018-11-21T05:45:33.683Z,3.15
2018-11-21T05:48:34.223Z,2.87
2018-11-21T05:51:34.722Z,3.00
2018-11-21T05:54:35.279Z,3.22
2018-11-21T05:57:35.787Z,3.25
2018-11-21T06:00:36.342Z,2.90
2018-11-21T06:03:36.859Z,3.12
2018-11-21T06:06:37.407Z,3.02
2018-11-21T06:09:37.919Z,3.17
2018-11-21T06:12:38.464Z,3.15
2018-11-21T06:15:38.998Z,3.52
2018-11-21T06:18:39.506Z,3.15
2018-11-21T06:21:40.068Z,3.02
2018-11-21T06:24:40.581Z,3.22
2018-11-21T06:27:41.129Z,3.25
2018-11-21T06:30:41.670Z,3.35
2018-11-21T06:33:42.175Z,2.80
2018-11-21T06:36:42.726Z,2.92
2018-11-21T06:39:43.230Z,3.40
2018-11-21T06:42:43.782Z,3.00
2018-11-21T06:45:44.302Z,2.92
2018-11-21T06:48:44.850Z,3.15
2018-11-21T06:51:45.362Z,3.20
2018-11-21T06:54:45.924Z,3.22
2018-11-21T06:57:46.470Z,3.30
2018-11-21T07:00:46.958Z,2.80
2018-11-21T07:03:47.509Z,3.47
2018-11-21T07:06:48.020Z,2.92
2018-11-21T07:09:48.575Z,3.17
2018-11-21T07:12:49.087Z,3.33
2018-11-21T07:15:49.639Z,3.40
2018-11-21T07:18:50.184Z,3.10
2018-11-21T07:21:50.682Z,2.95
2018-11-21T07:24:51.233Z,3.12
2018-11-21T07:27:51.745Z,3.40
2018-11-21T07:30:52.305Z,3.10
2018-11-21T07:33:52.806Z,2.90
2018-11-21T07:36:53.362Z,3.17
2018-11-21T07:39:53.902Z,3.20
2018-11-21T07:42:54.402Z,2.80
2018-11-21T07:45:54.959Z,3.20
2018-11-21T07:48:55.470Z,3.17
2018-11-21T07:51:56.017Z,3.20
2018-11-21T07:54:56.528Z,2.90
2018-11-21T07:57:57.082Z,2.70
2018-11-21T08:00:57.615Z,3.08
2018-11-21T08:03:58.127Z,3.12
2018-11-21T08:06:58.681Z,2.90
2018-11-21T08:09:59.195Z,3.05
2018-11-21T08:12:59.743Z,3.15
2018-11-21T08:16:00.254Z,2.75
2018-11-21T08:19:00.805Z,2.90
2018-11-21T08:22:01.317Z,3.15
2018-11-21T08:25:01.867Z,2.90
2018-11-21T08:28:02.414Z,3.00
2018-11-21T08:31:02.916Z,2.92
2018-11-21T08:34:03.462Z,2.72
2018-11-21T08:37:03.980Z,3.15
2018-11-21T08:40:04.531Z,3.20
2018-11-21T08:43:05.038Z,2.90
2018-11-21T08:46:05.606Z,3.05
2018-11-21T08:49:06.119Z,2.87
2018-11-21T08:52:06.642Z,2.92
2018-11-21T08:55:08.962Z,2.85
2018-11-21T08:58:07.699Z,2.83
2018-11-21T09:01:08.254Z,3.00
2018-11-21T09:04:08.763Z,3.12
2018-11-21T09:07:09.320Z,2.75
2018-11-21T09:10:09.825Z,2.87
2018-11-21T09:13:10.377Z,2.90
2018-11-21T09:16:10.923Z,3.20
2018-11-21T09:19:11.423Z,2.62
2018-11-21T09:22:11.974Z,2.58
2018-11-21T09:25:12.525Z,2.50
2018-11-21T09:28:13.046Z,2.87
2018-11-21T09:31:13.547Z,2.85
2018-11-21T09:34:14.102Z,2.72
2018-11-21T09:37:14.615Z,2.90
2018-11-21T09:40:15.162Z,2.75
2018-11-21T09:43:15.679Z,2.67
2018-11-21T09:46:17.366Z,2.30
2018-11-21T09:49:16.762Z,3.17
2018-11-21T09:52:17.270Z,2.80
2018-11-21T09:55:17.821Z,3.02
2018-11-21T09:58:18.338Z,2.77
2018-11-21T10:01:50.091Z,2.83
2018-11-21T10:04:50.635Z,2.67
2018-11-21T10:07:51.192Z,2.62
2018-11-21T10:10:51.841Z,2.55
2018-11-21T10:13:52.332Z,2.70
2018-11-21T10:16:52.895Z,2.75
2018-11-21T10:19:53.394Z,2.90
2018-11-21T10:22:53.946Z,3.00
2018-11-21T10:25:54.458Z,2.80
2018-11-21T10:28:55.018Z,2.47
2018-11-21T10:31:55.555Z,2.85
2018-11-21T10:34:56.050Z,2.70
2018-11-21T10:37:56.603Z,2.58
2018-11-21T10:40:57.110Z,2.65
2018-11-21T10:43:57.675Z,2.42
2018-11-21T10:46:58.181Z,2.50
2018-11-21T10:49:58.738Z,2.52
2018-11-21T10:52:59.242Z,2.50
2018-11-21T10:55:59.816Z,2.33
2018-11-21T10:59:00.337Z,2.60
2018-11-21T11:02:00.842Z,2.40
2018-11-21T11:05:01.400Z,2.67
2018-11-21T11:08:01.910Z,2.50
2018-11-21T11:11:02.459Z,2.60
2018-11-21T11:14:02.975Z,2.65
2018-11-21T11:17:04.471Z,2.60
2018-11-21T11:20:08.608Z,2.58
2018-11-21T11:23:05.502Z,2.65
2018-11-21T11:26:06.059Z,2.90
2018-11-21T11:29:06.546Z,2.40
2018-11-21T11:32:07.103Z,2.45
2018-11-21T11:35:07.613Z,2.70
2018-11-21T11:38:08.167Z,2.70
2018-11-21T11:41:08.677Z,2.60
2018-11-21T11:44:09.236Z,2.62
2018-11-21T11:47:09.739Z,2.50
2018-11-21T11:50:10.293Z,2.58
2018-11-21T11:53:10.802Z,2.50
2018-11-21T11:56:11.361Z,2.85
2018-11-21T11:59:11.872Z,2.42
2018-11-21T12:02:13.367Z,2.42
2018-11-21T12:05:12.968Z,2.52
2018-11-21T12:08:13.457Z,2.50
2018-11-21T12:11:14.014Z,2.47
2018-11-21T12:14:14.521Z,2.85
2018-11-21T12:17:15.078Z,2.37
2018-11-21T12:20:15.599Z,2.33
2018-11-21T12:23:16.149Z,2.50
2018-11-21T12:26:16.689Z,2.50
2018-11-21T12:29:17.187Z,2.42
2018-11-21T12:32:17.745Z,2.50
2018-11-21T12:35:18.251Z,2.37
2018-11-21T12:38:18.876Z,2.55
2018-11-21T12:41:19.310Z,2.47
2018-11-21T12:44:19.869Z,2.10
2018-11-21T12:47:20.374Z,2.45
2018-11-21T12:50:20.934Z,2.40
2018-11-21T12:53:21.442Z,2.42
2018-11-21T12:56:22.001Z,2.45
2018-11-21T12:59:22.507Z,2.22
2018-11-21T13:02:23.058Z,2.25
2018-11-21T13:05:23.604Z,2.10
2018-11-21T13:08:24.103Z,2.10
2018-11-21T13:11:24.788Z,2.00
2018-11-21T13:14:25.266Z,2.17
2018-11-21T13:17:25.832Z,2.27
2018-11-21T13:20:26.331Z,2.58
2018-11-21T13:23:26.900Z,2.35
2018-11-21T13:26:27.394Z,2.10
2018-11-21T13:29:27.946Z,2.50
2018-11-21T13:32:28.458Z,2.30
2018-11-21T13:35:29.014Z,2.35
2018-11-21T13:38:29.527Z,2.10
2018-11-21T13:41:30.076Z,2.45
2018-11-21T13:44:30.583Z,2.22
2018-11-21T13:47:31.145Z,2.60
2018-11-21T13:50:34.251Z,2.08
2018-11-21T13:53:32.208Z,2.10
2018-11-21T13:56:32.713Z,2.30
2018-11-21T13:59:33.262Z,2.20
2018-11-21T14:02:33.813Z,2.40
2018-11-21T14:05:34.311Z,2.12
2018-11-21T14:08:34.786Z,2.20
2018-11-21T14:11:35.272Z,2.33
2018-11-21T14:14:35.834Z,2.47
2018-11-21T14:17:36.354Z,2.30
2018-11-21T14:20:36.864Z,2.40
2018-11-21T14:23:37.420Z,2.25
2018-11-21T14:26:37.937Z,2.25
2018-11-21T14:29:38.478Z,2.40
2018-11-21T14:32:38.997Z,2.15
2018-11-21T14:35:39.548Z,2.00
2018-11-21T14:38:40.059Z,2.00
2018-11-21T14:41:40.616Z,2.00
2018-11-21T14:44:41.138Z,2.30
2018-11-21T14:47:41.655Z,2.10
2018-11-21T14:50:42.210Z,2.10
2018-11-21T14:53:43.024Z,2.02
2018-11-21T14:56:43.275Z,2.40
2018-11-21T14:59:43.785Z,2.00
2018-11-21T15:02:44.332Z,2.08
2018-11-21T15:05:44.897Z,2.45
2018-11-21T15:08:45.351Z,2.02
2018-11-21T15:11:45.828Z,2.17
2018-11-21T15:14:46.342Z,2.20
2018-11-21T15:17:46.886Z,1.95
2018-11-21T15:20:47.408Z,2.25
2018-11-21T15:23:47.955Z,2.33
2018-11-21T15:26:48.499Z,2.30
2018-11-21T15:29:48.995Z,2.02
2018-11-21T15:32:49.560Z,2.20
2018-11-21T15:35:50.063Z,1.92
2018-11-21T15:38:50.620Z,1.90
2018-11-21T15:41:51.130Z,2.10
2018-11-21T15:44:51.675Z,2.17
2018-11-21T15:47:52.233Z,2.00
2018-11-21T15:50:52.722Z,1.85
2018-11-21T15:53:53.275Z,2.08
2018-11-21T15:56:53.806Z,1.90
2018-11-21T15:59:54.337Z,3.20
2018-11-21T16:02:54.829Z,2.30
2018-11-21T16:05:55.290Z,3.02
2018-11-21T16:08:55.761Z,3.15
2018-11-21T16:11:56.221Z,2.75
2018-11-21T16:14:56.668Z,2.60
2018-11-21T16:17:57.196Z,2.27
2018-11-21T16:20:57.733Z,2.60
2018-11-21T16:23:58.236Z,2.70
2018-11-21T16:26:58.697Z,2.72
2018-11-21T16:29:59.198Z,2.52
2018-11-21T16:32:59.644Z,2.60
2018-11-21T16:36:00.083Z,2.75
2018-11-21T16:39:00.588Z,2.45
2018-11-21T16:42:01.041Z,2.67
2018-11-21T16:45:01.548Z,3.13
2018-11-21T16:48:02.010Z,2.80
2018-11-21T16:51:02.537Z,2.95
2018-11-21T16:54:03.042Z,2.67
2018-11-21T16:57:03.513Z,2.70
2018-11-21T17:00:04.930Z,2.55
2018-11-21T17:03:05.380Z,3.10
2018-11-21T17:06:05.894Z,2.75
2018-11-21T17:09:06.352Z,2.87
2018-11-21T17:12:06.852Z,2.95
2018-11-21T17:15:07.301Z,3.02
2018-11-21T17:18:07.831Z,2.85
2018-11-21T17:21:08.345Z,2.62
2018-11-21T17:24:08.800Z,2.60
2018-11-21T17:27:09.314Z,2.55
2018-11-21T17:30:09.757Z,2.37
2018-11-21T17:33:10.270Z,2.60
2018-11-21T17:36:10.726Z,2.77
2018-11-21T17:39:11.257Z,2.50
2018-11-21T17:42:11.762Z,2.40
2018-11-21T17:45:12.210Z,2.47
2018-11-21T17:48:12.720Z,2.50
2018-11-21T17:51:13.184Z,2.60
2018-11-21T17:54:13.679Z,2.70
2018-11-21T17:57:14.134Z,2.67
2018-11-21T18:00:14.656Z,2.30
2018-11-21T18:03:15.095Z,2.40
2018-11-21T18:06:15.646Z,2.70
2018-11-21T18:09:16.131Z,3.27
2018-11-21T18:12:16.594Z,2.92
2018-11-21T18:15:17.000Z,2.92
2018-11-21T18:18:17.448Z,3.80
